Time;durP1;ratioP1;P1;durP2;ratioP2;P2;SDS_P1;SDS_P2;PMS_P1;PMS_P2;Temp;Humidity;BMP_temperature;BMP_pressure;BME280_temperature;BME280_humidity;BME280_pressure;Samples;Min_cycle;Max_cycle;Signal;HPM_P1;HPM_P2
2024/01/05 00:00:32;;;;;;;13.20;5.57;;;;;;;5.04;100.00;98383.81;5071244;28;20023;-78
2024/01/05 00:03:01;;;;;;;10.63;6.43;;;;;;;5.24;100.00;98419.63;5072490;28;20036;-79
2024/01/05 00:05:26;;;;;;;13.43;6.55;;;;;;;5.15;100.00;98419.31;5072581;28;20020;-78
2024/01/05 00:07:52;;;;;;;7.20;4.72;;;;;;;5.32;100.00;98451.19;5072304;28;20411;-78
2024/01/05 00:10:18;;;;;;;9.13;4.68;;;;;;;4.95;100.00;98408.16;5070988;28;20070;-78
2024/01/05 00:12:43;;;;;;;7.45;4.32;;;;;;;4.93;100.00;98450.81;5072399;28;20028;-79
2024/01/05 00:15:12;;;;;;;9.73;4.20;;;;;;;4.89;100.00;98453.56;5071980;28;20047;-78
2024/01/05 00:17:37;;;;;;;9.68;3.28;;;;;;;4.39;100.00;98412.16;5070893;28;20557;-78
2024/01/05 00:20:04;;;;;;;5.90;3.83;;;;;;;4.66;100.00;98451.41;5070794;28;20108;-79
2024/01/05 00:22:29;;;;;;;6.07;4.45;;;;;;;4.17;100.00;98383.41;5071753;28;20109;-78
2024/01/05 00:24:55;;;;;;;9.75;4.88;;;;;;;4.68;100.00;98451.03;5069806;28;20493;-77
2024/01/05 00:27:20;;;;;;;6.50;4.32;;;;;;;4.21;100.00;98406.81;5070836;28;20470;-78
2024/01/05 00:29:46;;;;;;;4.55;3.40;;;;;;;3.91;100.00;98382.03;5072063;28;20099;-78
2024/01/05 00:32:11;;;;;;;5.35;3.58;;;;;;;4.22;100.00;98465.03;5072417;28;20462;-78
2024/01/05 00:34:37;;;;;;;57.15;18.60;;;;;;;4.18;100.00;98440.44;5070290;28;20477;-78
2024/01/05 00:37:03;;;;;;;9.57;4.95;;;;;;;4.17;100.00;98477.13;5071776;28;20024;-78
2024/01/05 00:39:28;;;;;;;7.35;4.13;;;;;;;4.17;100.00;98460.72;5070486;28;20028;-78
2024/01/05 00:41:54;;;;;;;10.98;3.92;;;;;;;3.89;100.00;98412.47;5070410;28;20101;-78
2024/01/05 00:44:19;;;;;;;9.55;4.35;;;;;;;4.20;100.00;98473.63;5071711;28;20074;-80
2024/01/05 00:46:45;;;;;;;6.18;3.58;;;;;;;4.27;100.00;98483.75;5071770;28;20082;-80
2024/01/05 00:49:10;;;;;;;7.47;3.30;;;;;;;4.07;100.00;98467.84;5070542;28;20490;-78
2024/01/05 00:51:36;;;;;;;6.18;4.32;;;;;;;3.97;100.00;98467.88;5071390;28;20048;-78
2024/01/05 00:54:01;;;;;;;6.45;3.90;;;;;;;4.17;100.00;98479.09;5071523;28;20043;-78
2024/01/05 00:56:27;;;;;;;7.03;3.78;;;;;;;4.03;100.00;98458.88;5070258;28;20492;-81
2024/01/05 00:58:52;;;;;;;7.47;3.65;;;;;;;4.20;100.00;98459.94;5071498;28;20051;-80
2024/01/05 01:01:17;;;;;;;9.82;5.65;;;;;;;4.27;100.00;98467.34;5070289;28;20107;-81
2024/01/05 01:03:43;;;;;;;9.00;4.38;;;;;;;4.13;100.00;98440.84;5069922;28;20032;-78
2024/01/05 01:06:08;;;;;;;9.80;4.85;;;;;;;4.36;100.00;98464.91;5070080;28;20174;-80
2024/01/05 01:08:34;;;;;;;11.45;4.40;;;;;;;4.56;100.00;98471.44;5070000;28;20086;-80
2024/01/05 01:11:00;;;;;;;53.35;15.93;;;;;;;4.63;100.00;98470.59;5070125;28;20489;-78
2024/01/05 01:13:26;;;;;;;18.95;8.57;;;;;;;4.60;100.00;98466.72;5071327;28;20099;-79
2024/01/05 01:15:51;;;;;;;16.75;7.47;;;;;;;4.45;100.00;98433.22;5069986;28;20123;-79
2024/01/05 01:18:16;;;;;;;10.77;5.88;;;;;;;4.59;100.00;98454.19;5071034;28;20036;-78
2024/01/05 01:20:42;;;;;;;11.32;4.75;;;;;;;3.94;100.00;98362.09;5069824;28;20067;-78
2024/01/05 01:23:07;;;;;;;6.72;4.40;;;;;;;4.57;100.00;98458.53;5070002;28;20037;-78
2024/01/05 01:25:33;;;;;;;9.18;4.90;;;;;;;4.66;100.00;98475.25;5070050;28;20025;-78
2024/01/05 01:27:58;;;;;;;16.55;6.55;;;;;;;4.38;100.00;98425.06;5070052;28;20025;-78
2024/01/05 01:30:23;;;;;;;42.85;14.18;;;;;;;4.55;100.00;98449.94;5070773;28;20040;-78
2024/01/05 01:32:49;;;;;;;37.75;13.55;;;;;;;4.82;100.00;98484.50;5071063;28;20020;-79
2024/01/05 01:35:15;;;;;;;19.40;8.15;;;;;;;4.81;100.00;98482.19;5069610;28;20031;-79
2024/01/05 01:37:40;;;;;;;19.25;6.90;;;;;;;4.72;100.00;98466.22;5069505;28;20111;-78
2024/01/05 01:40:06;;;;;;;9.63;3.53;;;;;;;4.84;100.00;98464.97;5070738;28;20021;-78
2024/01/05 01:42:32;;;;;;;5.18;2.13;;;;;;;5.12;100.00;98461.22;5069550;28;20099;-78
2024/01/05 01:44:57;;;;;;;13.90;3.33;;;;;;;5.55;100.00;98491.66;5069686;28;20035;-78
2024/01/05 01:47:23;;;;;;;24.95;9.13;;;;;;;5.22;100.00;98441.94;5070685;28;20025;-78
2024/01/05 01:49:49;;;;;;;13.45;5.28;;;;;;;5.47;100.00;98485.50;5069610;28;20028;-78
2024/01/05 01:52:16;;;;;;;14.00;5.28;;;;;;;5.32;100.00;98464.91;5069289;28;20054;-79
2024/01/05 01:54:42;;;;;;;19.60;9.88;;;;;;;4.84;100.00;98377.38;5070732;28;20036;-78
2024/01/05 01:57:08;;;;;;;10.45;6.22;;;;;;;5.24;100.00;98444.25;5069229;28;20505;-78
2024/01/05 01:59:34;;;;;;;12.10;5.85;;;;;;;5.40;100.00;98451.91;5070765;28;20032;-78
2024/01/05 02:02:00;;;;;;;10.38;5.72;;;;;;;5.08;100.00;98431.09;5069466;28;20119;-78
2024/01/05 02:04:26;;;;;;;7.85;4.55;;;;;;;5.26;100.00;98486.47;5070850;28;20478;-81
2024/01/05 02:06:52;;;;;;;6.22;3.25;;;;;;;5.13;100.00;98490.13;5069399;28;20036;-77
2024/01/05 02:09:18;;;;;;;3.85;2.65;;;;;;;5.31;100.00;98468.81;5069233;28;20098;-78
2024/01/05 02:11:44;;;;;;;6.40;3.10;;;;;;;5.27;100.00;98440.69;5069428;28;20028;-78
2024/01/05 02:14:09;;;;;;;8.70;2.70;;;;;;;5.74;100.00;98491.06;5069339;28;20409;-78
2024/01/05 02:16:35;;;;;;;5.00;2.78;;;;;;;5.87;99.69;98480.34;5069209;28;20485;-78
2024/01/05 02:19:00;;;;;;;2.72;2.10;;;;;;;5.93;98.59;98476.00;5069375;28;20021;-78
2024/01/05 02:21:32;;;;;;;5.05;1.83;;;;;;;6.19;97.44;98507.41;5069241;28;20383;-79
2024/01/05 02:24:00;;;;;;;2.97;1.77;;;;;;;5.99;96.65;98449.66;5070523;28;20039;-78
2024/01/05 02:26:26;;;;;;;4.05;1.92;;;;;;;6.30;94.76;98466.88;5070464;28;20032;-78
2024/01/05 02:28:51;;;;;;;5.45;2.60;;;;;;;6.48;92.88;98468.19;5070371;28;20170;-78
2024/01/05 02:31:16;;;;;;;4.97;2.42;;;;;;;6.65;90.46;98496.56;5070504;28;20025;-78
2024/01/05 02:33:42;;;;;;;3.75;1.98;;;;;;;6.69;90.80;98515.72;5070451;28;20510;-78
2024/01/05 02:36:07;;;;;;;5.13;1.85;;;;;;;6.41;91.20;98490.25;5069075;28;20091;-78
2024/01/05 02:38:33;;;;;;;13.98;7.32;;;;;;;6.30;91.12;98497.84;5068780;28;20549;-78
2024/01/05 02:41:00;;;;;;;14.98;6.30;;;;;;;6.29;92.98;98517.44;5068884;28;20032;-78
2024/01/05 02:43:25;;;;;;;11.60;5.30;;;;;;;5.71;94.41;98481.72;5068971;28;20185;-78
2024/01/05 02:45:50;;;;;;;7.53;3.60;;;;;;;5.84;94.53;98523.06;5068853;28;20115;-80
2024/01/05 02:48:16;;;;;;;8.02;3.63;;;;;;;5.45;95.77;98462.44;5071337;28;20462;-78
2024/01/05 02:50:41;;;;;;;8.90;4.15;;;;;;;5.52;95.87;98526.16;5072304;28;20063;-78
2024/01/05 02:53:07;;;;;;;6.93;4.07;;;;;;;5.24;97.76;98493.56;5072588;28;20036;-78
2024/01/05 02:55:32;;;;;;;9.25;4.35;;;;;;;4.88;98.28;98465.72;5073752;28;20086;-78
2024/01/05 02:57:58;;;;;;;7.47;4.60;;;;;;;5.16;98.93;98508.50;5073849;28;20035;-78
2024/01/05 03:00:23;;;;;;;12.65;4.75;;;;;;;5.08;99.42;98502.28;5072426;28;20025;-79
2024/01/05 03:02:48;;;;;;;11.13;6.32;;;;;;;5.07;100.00;98519.91;5072458;28;20158;-78
2024/01/05 03:05:14;;;;;;;9.20;4.85;;;;;;;4.79;100.00;98517.41;5073575;28;20032;-78
2024/01/05 03:07:42;;;;;;;23.52;11.50;;;;;;;4.39;100.00;98480.53;5072071;28;20555;-78
2024/01/05 03:10:07;;;;;;;8.55;4.93;;;;;;;4.83;100.00;98538.06;5072492;28;20035;-78
2024/01/05 03:12:33;;;;;;;9.90;5.15;;;;;;;4.83;100.00;98534.56;5071801;28;20036;-77
2024/01/05 03:14:58;;;;;;;4.18;3.17;;;;;;;4.76;100.00;98491.59;5071956;28;20032;-78
2024/01/05 03:17:23;;;;;;;10.85;5.47;;;;;;;5.12;99.37;98518.72;5073589;28;20043;-79
2024/01/05 03:19:49;;;;;;;6.88;4.15;;;;;;;4.80;98.18;98486.13;5072074;28;20035;-78
2024/01/05 03:22:14;;;;;;;10.10;3.95;;;;;;;4.82;97.87;98489.97;5072120;28;20563;-78
2024/01/05 03:24:40;;;;;;;12.30;5.13;;;;;;;4.84;97.53;98487.63;5071947;28;20032;-78
2024/01/05 03:27:05;;;;;;;6.90;4.22;;;;;;;4.75;98.09;98505.69;5071862;28;20085;-78
2024/01/05 03:29:31;;;;;;;10.00;4.57;;;;;;;4.85;99.71;98562.31;5071853;28;20024;-78
2024/01/05 03:31:56;;;;;;;10.70;4.10;;;;;;;4.86;99.80;98555.66;5073145;28;20050;-77
2024/01/05 03:34:22;;;;;;;7.50;3.55;;;;;;;4.66;99.93;98530.00;5071661;28;20036;-78
2024/01/05 03:36:47;;;;;;;5.65;3.00;;;;;;;4.62;99.89;98521.81;5071807;28;20445;-78
2024/01/05 03:39:13;;;;;;;7.38;3.40;;;;;;;5.01;99.04;98586.44;5072723;28;20529;-78
2024/01/05 03:41:38;;;;;;;10.82;4.10;;;;;;;4.86;98.56;98547.44;5072759;28;20024;-78
2024/01/05 03:44:04;;;;;;;9.65;4.72;;;;;;;4.94;97.68;98573.59;5073113;28;20028;-81
2024/01/05 03:46:30;;;;;;;12.80;5.72;;;;;;;4.75;98.25;98533.06;5071629;28;20033;-78
2024/01/05 03:48:55;;;;;;;8.32;4.05;;;;;;;4.71;97.31;98537.78;5071518;28;20039;-78
2024/01/05 03:51:20;;;;;;;12.27;4.15;;;;;;;4.96;97.63;98575.91;5071376;28;20417;-79
2024/01/05 03:53:46;;;;;;;7.22;2.60;;;;;;;5.21;96.38;98590.22;5071403;28;20489;-78
2024/01/05 03:56:12;;;;;;;7.43;3.00;;;;;;;5.27;94.49;98616.78;5071373;28;20028;-77
2024/01/05 03:58:37;;;;;;;9.32;3.97;;;;;;;5.28;95.50;98628.50;5072639;28;20038;-78
2024/01/05 04:01:03;;;;;;;6.78;4.03;;;;;;;4.94;96.03;98570.09;5072666;28;20466;-78
2024/01/05 04:03:29;;;;;;;9.18;4.50;;;;;;;5.25;96.11;98626.56;5072435;28;20062;-78
2024/01/05 04:05:54;;;;;;;11.07;5.45;;;;;;;5.20;95.73;98640.69;5071220;28;20024;-78
2024/01/05 04:08:20;;;;;;;11.75;4.63;;;;;;;4.74;96.18;98589.75;5072210;28;20036;-78
2024/01/05 04:10:46;;;;;;;6.43;3.40;;;;;;;4.77;96.64;98591.69;5071162;28;20029;-78
2024/01/05 04:13:11;;;;;;;9.10;3.92;;;;;;;4.35;95.48;98520.78;5071129;28;20489;-79
2024/01/05 04:15:38;;;;;;;6.45;3.22;;;;;;;4.97;96.04;98637.72;5072243;28;20401;-78
2024/01/05 04:18:04;;;;;;;4.70;2.83;;;;;;;5.02;96.33;98650.97;5071011;28;20029;-78
2024/01/05 04:20:29;;;;;;;4.32;2.58;;;;;;;5.09;96.53;98656.41;5072065;28;20085;-78
2024/01/05 04:22:55;;;;;;;5.95;2.90;;;;;;;4.77;96.54;98602.63;5071026;28;20390;-78
2024/01/05 04:25:21;;;;;;;7.32;2.67;;;;;;;5.05;96.00;98661.94;5072155;28;20445;-78
2024/01/05 04:27:46;;;;;;;7.70;2.30;;;;;;;4.62;96.41;98614.84;5070767;28;20020;-79
2024/01/05 04:30:12;;;;;;;7.00;3.20;;;;;;;4.66;97.00;98617.56;5070796;28;20024;-78
2024/01/05 04:32:37;;;;;;;8.90;3.03;;;;;;;4.94;96.93;98661.22;5070739;28;20021;-78
2024/01/05 04:35:03;;;;;;;6.45;2.92;;;;;;;5.00;96.32;98673.31;5070605;28;20413;-79
2024/01/05 04:37:28;;;;;;;11.30;3.40;;;;;;;4.63;95.61;98624.63;5070505;28;20028;-82
2024/01/05 04:39:54;;;;;;;26.42;10.20;;;;;;;4.75;96.26;98670.69;5071916;28;20413;-78
2024/01/05 04:42:19;;;;;;;9.45;4.63;;;;;;;4.43;96.01;98623.53;5070576;28;20021;-78
2024/01/05 04:44:45;;;;;;;41.50;10.35;;;;;;;4.59;96.30;98664.09;5071723;28;20031;-79
2024/01/05 04:47:10;;;;;;;10.75;5.50;;;;;;;4.46;97.01;98650.09;5070309;28;20036;-78
2024/01/05 04:49:36;;;;;;;13.65;4.40;;;;;;;4.57;97.58;98648.09;5071521;28;20035;-78
2024/01/05 04:52:01;;;;;;;14.25;4.15;;;;;;;4.64;96.99;98633.59;5070249;28;20057;-78
2024/01/05 04:54:27;;;;;;;10.60;4.38;;;;;;;4.80;96.25;98678.47;5071453;28;20064;-78
2024/01/05 04:56:52;;;;;;;13.15;5.50;;;;;;;4.64;95.80;98680.13;5070282;28;20029;-78
2024/01/05 04:59:20;;;;;;;6.75;3.20;;;;;;;4.43;97.85;98672.75;5070274;28;20123;-78
2024/01/05 05:01:46;;;;;;;7.45;3.72;;;;;;;4.53;97.90;98691.09;5070056;28;20020;-79
2024/01/05 05:04:13;;;;;;;11.18;4.82;;;;;;;4.58;97.42;98709.06;5070061;28;20464;-79
2024/01/05 05:06:39;;;;;;;9.23;4.80;;;;;;;4.16;97.75;98677.16;5069979;28;20512;-79
2024/01/05 05:09:04;;;;;;;8.40;4.70;;;;;;;4.13;97.54;98694.31;5071221;28;20033;-78
2024/01/05 05:11:29;;;;;;;10.05;5.10;;;;;;;4.06;98.52;98706.06;5069709;28;20058;-79
2024/01/05 05:13:55;;;;;;;10.40;6.05;;;;;;;3.82;98.83;98688.50;5069959;28;20406;-79
2024/01/05 05:16:20;;;;;;;12.75;6.15;;;;;;;3.72;98.99;98688.50;5071029;28;20588;-78
2024/01/05 05:18:47;;;;;;;15.25;7.85;;;;;;;3.69;99.88;98688.13;5069852;28;20493;-79
2024/01/05 05:21:12;;;;;;;9.82;4.47;;;;;;;3.54;98.73;98688.50;5071016;28;20016;-80
2024/01/05 05:23:38;;;;;;;72.22;28.75;;;;;;;3.22;100.00;98694.72;5071089;28;20032;-79
2024/01/05 05:26:05;;;;;;;12.32;5.47;;;;;;;3.09;99.37;98701.69;5069927;28;20039;-78
2024/01/05 05:28:30;;;;;;;10.65;3.40;;;;;;;2.87;99.23;98700.09;5069647;28;20413;-79
2024/01/05 05:30:56;;;;;;;8.68;4.20;;;;;;;2.74;99.12;98709.78;5071108;28;20013;-78
2024/01/05 05:33:22;;;;;;;68.35;19.50;;;;;;;2.28;100.00;98680.38;5070998;28;20024;-78
2024/01/05 05:35:48;;;;;;;9.93;4.75;;;;;;;2.64;100.00;98726.91;5069688;28;20441;-77
2024/01/05 05:38:14;;;;;;;151.18;34.70;;;;;;;2.40;100.00;98715.50;5069573;28;20089;-78
2024/01/05 05:40:39;;;;;;;15.10;5.97;;;;;;;2.66;100.00;98730.78;5070714;28;20021;-78
2024/01/05 05:43:04;;;;;;;12.13;4.13;;;;;;;2.55;100.00;98707.34;5069869;28;20090;-78
2024/01/05 05:45:30;;;;;;;22.52;6.50;;;;;;;2.81;100.00;98737.09;5069475;28;20032;-78
2024/01/05 05:47:55;;;;;;;137.90;39.08;;;;;;;2.99;100.00;98745.34;5069296;28;20039;-78
2024/01/05 05:50:21;;;;;;;422.38;103.88;;;;;;;3.23;100.00;98761.81;5069244;28;20036;-78
2024/01/05 05:52:47;;;;;;;171.10;46.13;;;;;;;3.12;100.00;98741.88;5070576;28;20413;-79
2024/01/05 05:55:12;;;;;;;53.30;18.63;;;;;;;3.17;100.00;98759.84;5069444;28;20120;-78
2024/01/05 05:57:41;;;;;;;15.73;7.93;;;;;;;2.85;100.00;98716.06;5070695;28;20023;-79
2024/01/05 06:00:07;;;;;;;452.33;110.05;;;;;;;3.05;100.00;98768.38;5068094;28;20027;-79
2024/01/05 06:02:33;;;;;;;282.40;69.25;;;;;;;3.10;100.00;98776.97;5069283;28;20025;-79
2024/01/05 06:04:58;;;;;;;194.82;55.10;;;;;;;3.08;100.00;98782.03;5070519;28;20029;-77
2024/01/05 06:07:24;;;;;;;104.72;33.80;;;;;;;2.98;100.00;98779.25;5069127;28;20094;-78
2024/01/05 06:09:50;;;;;;;21.70;9.63;;;;;;;2.58;100.00;98725.69;5070857;28;20486;-78
2024/01/05 06:12:16;;;;;;;6.75;3.50;;;;;;;2.96;100.00;98796.00;5069372;28;20025;-77
2024/01/05 06:14:41;;;;;;;7.03;3.75;;;;;;;2.82;100.00;98791.28;5069338;28;20027;-78
2024/01/05 06:17:06;;;;;;;16.75;7.60;;;;;;;2.48;100.00;98749.00;5068977;28;20032;-79
2024/01/05 06:19:32;;;;;;;16.50;7.60;;;;;;;2.78;100.00;98786.97;5070764;28;20025;-78
2024/01/05 06:21:59;;;;;;;23.95;14.27;;;;;;;2.67;100.00;98764.31;5070565;28;20032;-78
2024/01/05 06:24:25;;;;;;;11.80;6.05;;;;;;;2.46;100.00;98726.81;5072228;28;20107;-78
2024/01/05 06:26:51;;;;;;;12.77;5.10;;;;;;;2.86;100.00;98785.84;5074144;28;20116;-78
2024/01/05 06:29:17;;;;;;;12.85;6.95;;;;;;;3.04;100.00;98800.34;5074314;28;20081;-78
2024/01/05 06:31:42;;;;;;;7.55;4.50;;;;;;;3.03;100.00;98812.41;5074279;28;20107;-78
2024/01/05 06:34:08;;;;;;;7.13;3.80;;;;;;;2.63;100.00;98725.31;5074377;28;20086;-79
2024/01/05 06:36:33;;;;;;;8.32;3.28;;;;;;;3.02;100.00;98778.09;5072924;28;20059;-78
2024/01/05 06:38:58;;;;;;;5.22;3.25;;;;;;;3.26;100.00;98815.63;5072964;28;20028;-78
2024/01/05 06:41:24;;;;;;;7.80;3.13;;;;;;;3.12;100.00;98793.75;5073888;28;20037;-78
2024/01/05 06:43:49;;;;;;;10.20;3.30;;;;;;;3.20;100.00;98810.91;5072792;28;20036;-78
2024/01/05 06:46:15;;;;;;;11.65;5.05;;;;;;;2.89;100.00;98779.63;5072581;28;20536;-78
2024/01/05 06:48:40;;;;;;;11.45;4.53;;;;;;;3.31;100.00;98809.03;5074110;28;20020;-78
2024/01/05 06:51:06;;;;;;;9.88;5.75;;;;;;;3.35;100.00;98800.84;5072471;28;20053;-78
2024/01/05 06:53:31;;;;;;;12.27;6.72;;;;;;;3.49;100.00;98803.63;5072787;28;20115;-78
2024/01/05 06:55:56;;;;;;;25.08;10.52;;;;;;;3.73;100.00;98827.47;5072572;28;20024;-77
2024/01/05 06:58:23;;;;;;;23.20;9.63;;;;;;;3.89;100.00;98827.88;5073760;28;20039;-78
2024/01/05 07:00:49;;;;;;;22.67;10.43;;;;;;;3.94;100.00;98808.38;5073612;28;20039;-79
2024/01/05 07:03:14;;;;;;;20.58;10.48;;;;;;;4.20;100.00;98820.88;5073839;28;20024;-79
2024/01/05 07:05:40;;;;;;;28.02;12.50;;;;;;;4.39;100.00;98822.44;5072308;28;20032;-78
2024/01/05 07:08:07;;;;;;;45.58;17.70;;;;;;;4.16;100.00;98783.78;5072393;28;20465;-77
2024/01/05 07:10:33;;;;;;;51.10;19.90;;;;;;;4.44;100.00;98789.22;5072571;28;20039;-78
2024/01/05 07:12:59;;;;;;;51.92;20.60;;;;;;;4.72;100.00;98800.09;5072248;28;20029;-79
2024/01/05 07:15:24;;;;;;;47.03;17.02;;;;;;;4.98;100.00;98817.25;5073585;28;20116;-77
2024/01/05 07:17:50;;;;;;;46.45;17.27;;;;;;;4.87;100.00;98787.94;5072260;28;20032;-78
2024/01/05 07:20:15;;;;;;;221.82;64.75;;;;;;;5.16;100.00;98794.09;5072089;28;20478;-78
2024/01/05 07:22:41;;;;;;;455.45;138.25;;;;;;;5.55;100.00;98826.75;5071941;28;20119;-78
2024/01/05 07:25:09;;;;;;;250.85;87.38;;;;;;;5.67;99.44;98798.91;5073176;28;20051;-78
2024/01/05 07:27:36;;;;;;;131.98;46.40;;;;;;;5.91;98.48;98804.63;5071963;28;20067;-78
2024/01/05 07:30:05;;;;;;;43.50;19.15;;;;;;;6.08;99.14;98801.78;5073844;28;20028;-78
2024/01/05 07:32:31;;;;;;;14.98;6.40;;;;;;;5.96;99.75;98761.16;5073111;28;20492;-77
2024/01/05 07:34:57;;;;;;;15.05;4.47;;;;;;;6.54;99.01;98825.31;5072757;28;20028;-77
2024/01/05 07:37:22;;;;;;;10.73;3.92;;;;;;;6.71;98.40;98826.31;5072960;28;20036;-78
2024/01/05 07:39:48;;;;;;;43.75;14.40;;;;;;;6.72;98.83;98801.22;5071751;28;20016;-78
2024/01/05 07:42:13;;;;;;;36.33;12.45;;;;;;;7.03;98.92;98834.22;5073214;28;20037;-78
2024/01/05 07:44:39;;;;;;;5.38;3.22;;;;;;;7.15;98.46;98818.00;5073044;28;20034;-78
2024/01/05 07:47:04;;;;;;;5.28;2.53;;;;;;;7.08;97.36;98792.56;5071527;28;20551;-77
2024/01/05 07:49:30;;;;;;;7.97;3.38;;;;;;;7.16;96.49;98794.06;5072975;28;20094;-78
2024/01/05 07:51:55;;;;;;;19.55;7.50;;;;;;;7.53;96.09;98831.69;5071360;28;20047;-78
2024/01/05 07:54:21;;;;;;;7.75;3.47;;;;;;;7.61;95.72;98817.41;5071496;28;20082;-78
2024/01/05 07:56:46;;;;;;;23.80;7.40;;;;;;;7.74;98.04;98831.38;5072616;28;20497;-78
2024/01/05 07:59:12;;;;;;;6.18;3.13;;;;;;;7.81;98.14;98853.28;5071235;28;20025;-79
2024/01/05 08:01:37;;;;;;;7.55;4.88;;;;;;;7.93;98.63;98855.47;5072555;28;20383;-78
2024/01/05 08:04:03;;;;;;;5.30;2.80;;;;;;;8.12;97.14;98857.56;5071241;28;20024;-78
2024/01/05 08:06:28;;;;;;;5.13;2.83;;;;;;;8.07;95.23;98821.47;5072498;28;20078;-77
2024/01/05 08:08:54;;;;;;;7.10;3.22;;;;;;;8.25;94.21;98827.47;5072395;28;20040;-78
2024/01/05 08:11:19;;;;;;;7.13;3.72;;;;;;;8.56;92.80;98861.19;5072431;28;20103;-79
2024/01/05 08:13:48;;;;;;;4.93;3.55;;;;;;;8.80;90.75;98868.25;5072387;28;20036;-78
2024/01/05 08:16:14;;;;;;;10.00;4.85;;;;;;;8.75;91.20;98851.44;5072317;28;20398;-78
2024/01/05 08:18:41;;;;;;;17.88;7.20;;;;;;;9.00;88.84;98860.03;5071171;28;20062;-79
2024/01/05 08:21:07;;;;;;;16.73;7.63;;;;;;;9.13;85.30;98871.22;5070919;28;20033;-79
2024/01/05 08:23:33;;;;;;;78.50;21.98;;;;;;;9.24;84.99;98863.53;5072143;28;20031;-80
2024/01/05 08:25:58;;;;;;;73.75;24.48;;;;;;;9.40;80.90;98856.09;5070809;28;20028;-78
2024/01/05 08:28:25;;;;;;;24.02;10.45;;;;;;;9.43;78.61;98845.44;5070786;28;20028;-78
2024/01/05 08:30:51;;;;;;;;;;;;;;;9.80;74.97;98869.88;5071365;28;20070;-78
2024/01/05 08:33:16;;;;;;;;;;;;;;;9.98;71.92;98870.25;5070876;28;19908;-78
2024/01/05 08:35:41;;;;;;;;;;;;;;;9.99;70.89;98871.03;5071179;28;20388;-78
2024/01/05 08:38:07;;;;;;;;;;;;;;;10.11;68.05;98868.41;5072305;28;19908;-78
2024/01/05 08:40:32;;;;;;;;;;;;;;;10.20;68.21;98867.81;5072213;28;19916;-79
2024/01/05 08:43:00;;;;;;;;;;;;;;;10.36;66.66;98872.59;5072181;28;19912;-79
2024/01/05 08:45:27;;;;;;;;;;;;;;;10.40;65.84;98865.78;5070429;28;19912;-78
2024/01/05 08:47:53;;;;;;;;;;;;;;;10.45;64.06;98867.22;5072134;28;19908;-79
2024/01/05 08:50:18;;;;;;;;;;;;;;;10.37;63.78;98866.63;5070696;28;20136;-78
2024/01/05 08:52:44;;;;;;;;;;;;;;;10.43;62.35;98866.88;5070829;28;19912;-78
2024/01/05 08:55:09;;;;;;;;;;;;;;;10.47;61.25;98862.06;5070713;28;19908;-78
2024/01/05 08:57:35;;;;;;;;;;;;;;;10.61;59.99;98858.94;5070655;28;19919;-78
2024/01/05 09:00:00;;;;;;;;;;;;;;;10.66;59.85;98866.72;5070641;28;19912;-78
2024/01/05 09:02:26;;;;;;;;;;;;;;;10.83;58.95;98868.25;5070587;28;19913;-78
2024/01/05 09:04:51;;;;;;;;;;;;;;;10.91;57.22;98861.31;5071745;28;19963;-78
2024/01/05 09:07:16;;;;;;;;;;;;;;;11.07;56.38;98863.28;5071806;28;19963;-78
2024/01/05 09:09:42;;;;;;;;;;;;;;;11.16;53.98;98866.19;5071790;28;19908;-78
2024/01/05 09:12:08;;;;;;;;;;;;;;;11.29;53.67;98858.72;5070467;28;19958;-77
2024/01/05 09:14:33;;;;;;;;;;;;;;;11.36;54.29;98857.75;5071686;28;19909;-78
2024/01/05 09:16:58;;;;;;;;;;;;;;;11.50;59.30;98851.06;5070381;28;19908;-78
2024/01/05 09:19:24;;;;;;;;;;;;;;;11.40;63.94;98842.59;5070390;28;19916;-78
2024/01/05 09:21:49;;;;;;;;;;;;;;;11.49;65.02;98835.66;5070148;28;19916;-78
2024/01/05 09:24:14;;;;;;;;;;;;;;;11.43;62.86;98841.75;5071486;28;19916;-79
2024/01/05 09:26:41;;;;;;;;;;;;;;;11.41;63.22;98837.84;5070041;28;19913;-78
2024/01/05 09:29:06;;;;;;;;;;;;;;;11.28;60.95;98840.56;5070224;28;19947;-78
2024/01/05 09:31:31;;;;;;;;;;;;;;;11.24;57.96;98834.38;5070099;28;19947;-78
2024/01/05 09:33:57;;;;;;;;;;;;;;;11.39;56.18;98837.53;5071557;28;19912;-78
2024/01/05 09:36:22;;;;;;;;;;;;;;;11.41;52.00;98835.84;5069992;28;20297;-79
2024/01/05 09:38:49;;;;;;;;;;;;;;;11.50;52.46;98840.75;5071279;28;19934;-78
2024/01/05 09:41:14;;;;;;;;;;;;;;;11.50;52.67;98831.69;5071201;28;19923;-78
2024/01/05 09:43:40;;;;;;;;;;;;;;;11.46;54.05;98825.47;5071336;28;20308;-79
2024/01/05 09:46:07;;;;;;;;;;;;;;;11.40;56.58;98820.47;5070963;28;19909;-79
2024/01/05 09:48:32;;;;;;;;;;;;;;;11.52;58.02;98815.41;5071252;28;19916;-79
2024/01/05 09:50:57;;;;;;;;;;;;;;;11.59;58.91;98820.72;5071180;28;19924;-78
2024/01/05 09:53:23;;;;;;;;;;;;;;;11.61;58.57;98816.31;5069703;28;20011;-79
2024/01/05 09:55:49;;;;;;;;;;;;;;;11.66;60.43;98812.22;5069849;28;19909;-79
2024/01/05 09:58:16;;;;;;;;;;;;;;;11.70;62.38;98807.34;5074328;28;19935;-78
2024/01/05 10:00:44;;;;;;;;;;;;;;;11.78;62.41;98811.50;5075159;28;20423;-79
2024/01/05 10:03:11;;;;;;;;;;;;;;;11.80;61.24;98809.06;5075218;28;20392;-78
2024/01/05 10:05:37;;;;;;;;;;;;;;;11.87;60.50;98817.16;5073823;28;19991;-79
2024/01/05 10:08:04;;;;;;;;;;;;;;;11.94;58.45;98808.59;5073750;28;20445;-79
2024/01/05 10:10:49;;;;;;;;;;;;;;;11.99;57.51;98802.53;5075064;28;19983;-78
2024/01/05 10:13:17;;;;;;;;;;;;;;;12.12;56.19;98802.50;5075106;28;19909;-78
2024/01/05 10:15:56;;;;;;;;;;;;;;;12.28;57.82;98801.63;5073509;28;19912;-77
2024/01/05 10:18:22;;;;;;;;;;;;;;;12.50;57.23;98808.00;5075045;28;19916;-78
2024/01/05 10:20:47;;;;;;;;;;;;;;;12.59;57.82;98808.88;5074852;28;19966;-78
2024/01/05 10:23:13;;;;;;;;;;;;;;;12.86;56.29;98802.81;5074772;28;19916;-79
2024/01/05 10:25:39;;;;;;;;;;;;;;;13.06;55.72;98810.84;5074893;28;19912;-78
2024/01/05 10:28:18;;;;;;;;;;;;;;;13.14;53.14;98819.72;5073602;28;19923;-79
2024/01/05 10:30:44;;;;;;;;;;;;;;;13.33;51.51;98813.03;5073502;28;19916;-78
2024/01/05 10:33:09;;;;;;;;;;;;;;;13.07;49.82;98806.84;5073234;28;19941;-79
2024/01/05 10:35:35;;;;;;;;;;;;;;;13.10;50.99;98805.16;5073339;28;19919;-78
2024/01/05 10:38:11;;;;;;;;;;;;;;;13.16;49.52;98803.38;5073399;28;20297;-78
2024/01/05 10:40:36;;;;;;;;;;;;;;;13.23;50.55;98797.56;5073196;28;20452;-79
2024/01/05 10:43:12;;;;;;;;;;;;;;;13.29;51.20;98795.75;5073150;28;19936;-79
2024/01/05 10:45:38;;;;;;;;;;;;;;;13.34;49.95;98797.94;5074363;28;20325;-78
2024/01/05 10:48:05;;;;;;;;;;;;;;;13.27;51.16;98795.44;5074405;28;19916;-78
2024/01/05 10:50:32;;;;;;;;;;;;;;;13.41;50.31;98790.16;5072801;28;19928;-78
2024/01/05 10:52:58;;;;;;;;;;;;;;;13.57;50.87;98778.03;5074372;28;19916;-79
2024/01/05 10:55:24;;;;;;;;;;;;;;;13.75;50.96;98778.13;5073037;28;19923;-78
2024/01/05 10:57:49;;;;;;;;;;;;;;;13.83;49.19;98775.84;5072724;28;19909;-78
2024/01/05 11:00:15;;;;;;;;;;;;;;;13.72;49.17;98770.72;5072894;28;19912;-78
2024/01/05 11:02:42;;;;;;;;;;;;;;;13.82;49.66;98777.09;5072768;28;19916;-79
2024/01/05 11:05:12;;;;;;;;;;;;;;;13.96;48.97;98770.19;5072692;28;19908;-78
2024/01/05 11:07:38;;;;;;;;;;;;;;;14.07;48.70;98765.00;5072682;28;19913;-79
2024/01/05 11:10:13;;;;;;;;;;;;;;;14.10;48.58;98761.31;5072060;28;19966;-77
2024/01/05 11:12:51;;;;;;;;;;;;;;;14.11;49.06;98766.38;5072635;28;20000;-78
2024/01/05 11:15:34;;;;;;;;;;;;;;;14.12;49.94;98761.59;5073910;28;20007;-79
2024/01/05 11:18:05;;;;;;;;;;;;;;;14.10;49.63;98759.31;5073850;28;20282;-78
2024/01/05 11:20:51;;;;;;;;;;;;;;;14.17;48.80;98755.44;5073727;28;19908;-78
2024/01/05 11:23:19;;;;;;;;;;;;;;;14.24;48.89;98758.72;5061972;28;19908;-79
2024/01/05 11:25:45;;;;;;;;;;;;;;;14.28;47.61;98753.03;5073782;28;19915;-78
2024/01/05 11:28:30;;;;;;;;;;;;;;;14.25;47.81;98757.47;5073638;28;19912;-79
2024/01/05 11:30:55;;;;;;;;;;;;;;;14.30;48.19;98750.53;5072324;28;19923;-78
2024/01/05 11:33:53;;;;;;;;;;;;;;;14.51;48.00;98748.91;5072031;28;19938;-77
2024/01/05 11:36:37;;;;;;;;;;;;;;;14.71;48.00;98752.00;5060872;28;19912;-78
2024/01/05 11:39:02;;;;;;;;;;;;;;;14.91;47.86;98751.53;5073807;28;20344;-79
2024/01/05 11:41:31;;;;;;;;;;;;;;;15.00;47.58;98751.53;5071925;28;20404;-79
2024/01/05 11:43:56;;;;;;;;;;;;;;;15.19;47.05;98757.88;5073022;28;19908;-79
2024/01/05 11:46:42;;;;;;;;;;;;;;;15.37;46.11;98753.00;5072135;28;19969;-79